createdAt,value
2022-09-05T00:02:48.858Z,101518.52
2022-09-05T00:06:01.935Z,101520.76
2022-09-05T00:09:01.953Z,101520.80
2022-09-05T00:11:58.025Z,101521.01
2022-09-05T00:15:17.796Z,101521.67
2022-09-05T00:20:49.680Z,101522.77
2022-09-05T00:24:26.251Z,101514.31
2022-09-05T00:25:31.782Z,101512.20
2022-09-05T00:28:30.387Z,101512.73
2022-09-05T00:31:55.890Z,101512.72
2022-09-05T00:35:09.003Z,101510.45
2022-09-05T00:38:00.160Z,101513.34
2022-09-05T00:40:53.324Z,101514.33
2022-09-05T00:43:46.463Z,101518.89
2022-09-05T00:46:39.961Z,101521.94
2022-09-05T00:49:38.718Z,101522.29
2022-09-05T00:52:35.992Z,101518.15
2022-09-05T00:55:35.723Z,101517.20
2022-09-05T00:58:57.929Z,101521.20
2022-09-05T01:01:54.802Z,101518.23
2022-09-05T01:04:52.960Z,101523.77
2022-09-05T01:07:52.858Z,101526.32
2022-09-05T01:10:51.448Z,101524.75
2022-09-05T01:13:51.691Z,101523.90
2022-09-05T01:17:11.116Z,101524.48
2022-09-05T01:20:19.103Z,101523.15
2022-09-05T01:23:34.963Z,101522.23
2022-09-05T01:26:51.183Z,101519.77
2022-09-05T01:29:49.270Z,101512.27
2022-09-05T01:32:51.214Z,101514.88
2022-09-05T01:36:08.931Z,101511.83
2022-09-05T01:40:11.201Z,101509.91
2022-09-05T01:42:33.535Z,101512.96
2022-09-05T01:45:29.089Z,101518.59
2022-09-05T01:48:38.284Z,101512.15
2022-09-05T01:51:42.193Z,101513.77
2022-09-05T01:54:41.186Z,101513.25
2022-09-05T01:57:45.584Z,101517.59
2022-09-05T02:00:44.627Z,101517.70
2022-09-05T02:03:44.402Z,101519.54
2022-09-05T02:06:44.204Z,101515.41
2022-09-05T02:09:56.845Z,101516.26
2022-09-05T02:13:04.318Z,101515.41
2022-09-05T02:16:04.226Z,101517.59
2022-09-05T02:19:01.478Z,101519.09
2022-09-05T02:22:01.347Z,101519.08
2022-09-05T02:26:00.734Z,101519.29
2022-09-05T02:28:21.175Z,101521.69
2022-09-05T02:31:19.670Z,101525.37
2022-09-05T02:34:18.959Z,101519.83
2022-09-05T02:37:14.252Z,101515.20
2022-09-05T02:45:06.636Z,101517.26
2022-09-05T02:45:08.520Z,101518.89
2022-09-05T02:47:03.674Z,101517.76
2022-09-05T02:53:07.922Z,101516.73
2022-09-05T02:57:37.798Z,101513.71
2022-09-05T02:57:47.032Z,101510.63
2022-09-05T03:00:09.360Z,101507.52
2022-09-05T03:03:28.704Z,101508.59
2022-09-05T03:06:35.105Z,101512.51
2022-09-05T03:09:41.591Z,101515.37
2022-09-05T03:12:55.914Z,101515.29
2022-09-05T03:16:32.776Z,101518.73
2022-09-05T03:20:03.130Z,101516.80
2022-09-05T03:23:38.452Z,101520.06
2022-09-05T03:26:50.436Z,101522.42
2022-09-05T03:30:04.947Z,101518.46
2022-09-05T03:33:30.408Z,101520.33
2022-09-05T03:36:59.405Z,101532.53
2022-09-05T03:40:19.367Z,101539.19
2022-09-05T03:43:35.104Z,101544.06
2022-09-05T03:46:42.506Z,101534.88
2022-09-05T03:55:07.282Z,101544.12
2022-09-05T03:57:15.712Z,101541.73
2022-09-05T03:57:15.960Z,101540.55
2022-09-05T04:00:22.663Z,101546.08
2022-09-05T04:08:08.280Z,101543.86
2022-09-05T04:08:15.724Z,101543.14
2022-09-05T04:09:55.819Z,101554.63
2022-09-05T04:12:54.120Z,101558.48
2022-09-05T04:15:46.848Z,101571.38
2022-09-05T04:18:42.111Z,101573.65
2022-09-05T04:21:36.291Z,101574.86
2022-09-05T04:24:32.397Z,101572.15
2022-09-05T04:27:48.025Z,101574.48
2022-09-05T04:30:47.275Z,101581.15
2022-09-05T04:33:48.160Z,101580.42
2022-09-05T04:36:40.283Z,101587.86
2022-09-05T04:39:32.287Z,101594.36
2022-09-05T04:42:25.264Z,101594.71
2022-09-05T04:45:23.451Z,101598.93
2022-09-05T04:48:21.437Z,101595.98
2022-09-05T04:51:23.998Z,101595.10
2022-09-05T04:54:30.263Z,101598.13
2022-09-05T04:57:31.550Z,101600.45
2022-09-05T05:06:02.905Z,101604.52
2022-09-05T05:06:20.303Z,101596.20
2022-09-05T05:06:55.999Z,101597.85
2022-09-05T05:10:31.719Z,101598.02
2022-09-05T05:18:00.551Z,101601.41
2022-09-05T05:18:09.411Z,101600.61
2022-09-05T05:19:48.937Z,101600.80
2022-09-05T05:23:08.006Z,101605.77
2022-09-05T05:26:01.293Z,101605.35
2022-09-05T05:28:58.456Z,101603.29
2022-09-05T05:31:54.430Z,101609.10
2022-09-05T05:34:50.352Z,101608.36
2022-09-05T05:37:46.123Z,101606.55
2022-09-05T05:40:51.271Z,101609.30
2022-09-05T05:43:46.698Z,101604.73
2022-09-05T05:46:42.103Z,101603.98
2022-09-05T05:49:46.500Z,101605.35
2022-09-05T05:53:33.486Z,101605.77
2022-09-05T05:56:48.414Z,101611.94
2022-09-05T05:59:57.673Z,101614.00
2022-09-05T06:03:27.549Z,101610.73
2022-09-05T06:06:44.489Z,101612.04
2022-09-05T06:14:50.351Z,101609.17
2022-09-05T06:15:00.160Z,101616.48
2022-09-05T06:17:33.834Z,101621.20
2022-09-05T06:22:06.615Z,101619.41
2022-09-05T06:24:37.475Z,101616.70
2022-09-05T06:28:01.401Z,101623.70
2022-09-05T06:31:30.861Z,101624.86
2022-09-05T06:35:02.704Z,101627.19
2022-09-05T06:38:05.557Z,101632.13
2022-09-05T06:41:06.123Z,101643.27
2022-09-05T06:44:31.063Z,101643.77
2022-09-05T06:47:33.928Z,101650.82
2022-09-05T06:50:43.410Z,101647.19
2022-09-05T06:54:00.472Z,101643.89
2022-09-05T06:57:11.664Z,101649.02
2022-09-05T07:00:21.666Z,101653.30
2022-09-05T07:03:26.881Z,101652.68
2022-09-05T07:07:01.539Z,101661.21
2022-09-05T07:09:53.354Z,101659.48
2022-09-05T07:12:49.638Z,101657.86
2022-09-05T07:15:42.335Z,101655.58
2022-09-05T07:18:43.773Z,101653.76
2022-09-05T07:21:41.438Z,101658.67
2022-09-05T07:24:53.998Z,101656.94
2022-09-05T07:28:26.148Z,101658.19
2022-09-05T07:31:05.191Z,101656.34
2022-09-05T07:34:20.882Z,101655.12
2022-09-05T07:37:18.069Z,101656.73
2022-09-05T07:40:27.309Z,101657.34
2022-09-05T07:43:22.656Z,101658.46
2022-09-05T07:46:16.972Z,101659.35
2022-09-05T07:49:12.635Z,101661.48
2022-09-05T07:56:53.144Z,101660.81
2022-09-05T07:56:54.789Z,101660.79
2022-09-05T07:58:44.142Z,101662.80
2022-09-05T08:01:39.477Z,101664.56
2022-09-05T08:04:32.345Z,101665.33
2022-09-05T08:07:47.298Z,101664.15
2022-09-05T08:11:22.527Z,101666.29
2022-09-05T08:14:44.827Z,101662.65
2022-09-05T08:17:30.257Z,101667.19
2022-09-05T08:20:32.602Z,101663.52
2022-09-05T08:23:46.423Z,101665.95
2022-09-05T08:26:45.216Z,101666.22
2022-09-05T08:29:40.102Z,101661.48
2022-09-05T08:32:41.742Z,101660.59
2022-09-05T08:35:39.775Z,101660.13
2022-09-05T08:38:33.895Z,101657.34
2022-09-05T08:41:49.338Z,101656.95
2022-09-05T08:46:39.203Z,101656.02
2022-09-05T08:48:14.157Z,101657.13
2022-09-05T08:51:23.932Z,101654.27
2022-09-05T08:54:31.907Z,101653.57
2022-09-05T08:57:27.236Z,101650.25
2022-09-05T09:00:24.943Z,101648.36
2022-09-05T09:03:25.761Z,101649.61
2022-09-05T09:06:43.806Z,101643.73
2022-09-05T09:09:57.614Z,101641.36
2022-09-05T09:13:07.297Z,101640.11
2022-09-05T09:16:06.673Z,101638.89
2022-09-05T09:19:10.784Z,101639.05
2022-09-05T09:22:14.375Z,101638.42
2022-09-05T09:25:15.830Z,101638.73
2022-09-05T09:28:47.351Z,101634.23
2022-09-05T09:32:01.980Z,101637.50
2022-09-05T09:35:05.659Z,101631.46
2022-09-05T09:38:22.666Z,101632.13
2022-09-05T09:41:45.485Z,101629.55
2022-09-05T09:45:22.894Z,101628.77
2022-09-05T09:48:40.222Z,101626.04
2022-09-05T09:52:08.930Z,101624.16
2022-09-05T09:55:53.347Z,101616.23
2022-09-05T09:59:03.410Z,101618.31
2022-09-05T10:03:17.101Z,101619.73
2022-09-05T10:10:45.727Z,101619.75
2022-09-05T10:10:55.283Z,101617.81
2022-09-05T10:13:08.013Z,101613.11
2022-09-05T10:16:53.449Z,101603.15
2022-09-05T10:20:29.600Z,101602.62
2022-09-05T10:23:45.956Z,101599.81
2022-09-05T10:27:21.025Z,101600.14
2022-09-05T10:30:25.242Z,101602.48
2022-09-05T10:35:14.709Z,101601.20
2022-09-05T10:36:55.063Z,101599.57
2022-09-05T10:39:48.537Z,101595.41
2022-09-05T10:42:58.072Z,101587.27
2022-09-05T10:46:02.594Z,101585.42
2022-09-05T10:48:57.551Z,101581.77
2022-09-05T10:51:54.009Z,101580.17
2022-09-05T10:55:14.882Z,101579.30
2022-09-05T10:58:22.101Z,101578.50
2022-09-05T11:02:24.227Z,101575.45
2022-09-05T11:04:52.952Z,101574.27
2022-09-05T11:07:54.300Z,101567.14
2022-09-05T11:10:53.130Z,101568.02
2022-09-05T11:13:50.140Z,101563.77
2022-09-05T11:16:48.475Z,101561.80
2022-09-05T11:19:44.269Z,101562.27
2022-09-05T11:22:37.722Z,101560.73
2022-09-05T11:25:38.279Z,101559.73
2022-09-05T11:28:38.972Z,101556.96
2022-09-05T11:36:45.695Z,101552.33
2022-09-05T11:39:52.398Z,101548.90
2022-09-05T11:40:02.602Z,101538.54
2022-09-05T11:42:44.315Z,101534.21
2022-09-05T11:46:10.423Z,101528.22
2022-09-05T11:49:20.627Z,101526.23
2022-09-05T11:52:47.595Z,101525.06
2022-09-05T11:56:00.376Z,101524.35
2022-09-05T11:59:33.455Z,101514.70
2022-09-05T12:02:49.968Z,101514.84
2022-09-05T12:06:14.766Z,101512.14
2022-09-05T12:09:14.320Z,101507.31
2022-09-05T12:12:39.363Z,101503.95
2022-09-05T12:15:34.542Z,101502.08
2022-09-05T12:18:36.627Z,101502.92
2022-09-05T12:21:38.389Z,101502.98
2022-09-05T12:25:25.251Z,101499.02
2022-09-05T12:28:03.865Z,101492.64
2022-09-05T12:33:11.430Z,101491.03
2022-09-05T12:36:11.387Z,101489.44
2022-09-05T12:40:58.716Z,101491.19
2022-09-05T12:41:44.040Z,101486.41
2022-09-05T12:44:52.242Z,101485.42
2022-09-05T12:47:59.306Z,101484.89
2022-09-05T12:50:58.772Z,101476.77
2022-09-05T12:53:52.082Z,101475.97
2022-09-05T12:58:57.879Z,101477.17
2022-09-05T13:03:03.375Z,101473.83
2022-09-05T13:03:28.844Z,101476.45
2022-09-05T13:06:30.257Z,101472.67
2022-09-05T13:09:29.422Z,101475.96
2022-09-05T13:15:03.211Z,101474.45
2022-09-05T13:15:59.348Z,101474.95
2022-09-05T13:18:51.937Z,101476.73
2022-09-05T13:21:52.846Z,101469.23
2022-09-05T13:24:48.176Z,101476.80
2022-09-05T13:27:46.771Z,101475.55
2022-09-05T13:37:39.543Z,101475.63
2022-09-05T13:38:07.305Z,101471.52
2022-09-05T13:38:10.927Z,101471.91
2022-09-05T13:40:34.109Z,101473.51
2022-09-05T13:43:27.787Z,101469.74
2022-09-05T13:46:22.584Z,101468.59
2022-09-05T13:49:26.745Z,101469.93
2022-09-05T13:52:31.516Z,101467.89
2022-09-05T13:55:33.620Z,101469.98
2022-09-05T13:58:33.290Z,101470.94
2022-09-05T14:02:20.061Z,101467.16
2022-09-05T14:05:21.081Z,101465.63
2022-09-05T14:08:41.332Z,101461.15
2022-09-05T14:11:56.962Z,101462.88
2022-09-05T14:15:09.299Z,101457.05
2022-09-05T14:18:20.547Z,101455.29
2022-09-05T14:21:17.465Z,101455.67
2022-09-05T14:24:12.994Z,101457.14
2022-09-05T14:27:17.123Z,101458.42
2022-09-05T14:32:27.619Z,101465.65
2022-09-05T14:37:42.127Z,101468.29
2022-09-05T14:37:54.944Z,101465.42
2022-09-05T14:39:57.848Z,101463.59
2022-09-05T14:42:51.656Z,101462.45
2022-09-05T14:45:53.737Z,101456.63
2022-09-05T14:48:53.511Z,101450.05
2022-09-05T14:51:43.206Z,101451.80
2022-09-05T15:00:12.125Z,101447.88
2022-09-05T15:02:51.310Z,101448.50
2022-09-05T15:03:15.281Z,101451.65
2022-09-05T15:05:51.574Z,101451.12
2022-09-05T15:11:24.028Z,101452.54
2022-09-05T15:12:21.806Z,101452.13
2022-09-05T15:14:29.427Z,101456.84
2022-09-05T15:17:05.917Z,101457.00
2022-09-05T15:20:05.263Z,101456.64
2022-09-05T15:22:42.095Z,101454.55
2022-09-05T15:25:21.600Z,101457.05
2022-09-05T15:27:54.676Z,101455.05
2022-09-05T15:30:35.717Z,101453.52
2022-09-05T15:33:18.234Z,101450.52
2022-09-05T15:35:59.380Z,101451.80
2022-09-05T15:38:54.302Z,101452.18
2022-09-05T15:41:30.311Z,101449.59
2022-09-05T15:44:09.625Z,101451.34
2022-09-05T15:46:51.482Z,101452.34
2022-09-05T15:49:30.286Z,101453.77
2022-09-05T15:52:06.061Z,101452.13
2022-09-05T15:54:43.594Z,101457.27
2022-09-05T15:57:26.750Z,101453.89
2022-09-05T16:00:02.130Z,101447.67
2022-09-05T16:02:39.160Z,101445.49
2022-09-05T16:10:27.143Z,101441.20
2022-09-05T16:10:39.699Z,101445.66
2022-09-05T16:12:07.307Z,101451.42
2022-09-05T16:14:25.599Z,101451.05
2022-09-05T16:23:14.399Z,101439.95
2022-09-05T16:23:26.771Z,101439.94
2022-09-05T16:23:27.595Z,101444.98
2022-09-05T16:26:02.352Z,101446.68
2022-09-05T16:28:39.118Z,101448.77
2022-09-05T16:31:18.214Z,101450.23
2022-09-05T16:33:51.375Z,101459.23
2022-09-05T16:36:29.906Z,101460.39
2022-09-05T16:39:04.891Z,101461.72
2022-09-05T16:41:44.405Z,101461.91
2022-09-05T16:44:25.222Z,101461.91
2022-09-05T16:47:11.257Z,101462.31
2022-09-05T16:49:55.328Z,101465.19
2022-09-05T16:52:38.591Z,101467.73
2022-09-05T16:55:29.314Z,101468.80
2022-09-05T16:58:14.084Z,101470.16
2022-09-05T17:01:07.122Z,101470.84
2022-09-05T17:03:52.579Z,101475.48
2022-09-05T17:06:33.481Z,101473.89
2022-09-05T17:09:13.766Z,101474.34
2022-09-05T17:12:00.789Z,101476.00
2022-09-05T17:14:38.060Z,101482.36
2022-09-05T17:18:04.662Z,101483.95
2022-09-05T17:20:15.110Z,101489.98
2022-09-05T17:28:24.127Z,101492.35
2022-09-05T17:29:45.742Z,101491.55
2022-09-05T17:32:49.953Z,101500.73
2022-09-05T17:35:48.944Z,101503.74
2022-09-05T17:38:43.883Z,101508.23
2022-09-05T17:41:53.624Z,101513.87
2022-09-05T17:44:31.291Z,101514.61
2022-09-05T17:47:15.260Z,101519.38
2022-09-05T17:49:50.570Z,101521.21
2022-09-05T17:52:24.734Z,101519.20
2022-09-05T17:54:57.894Z,101523.51
2022-09-05T17:57:50.600Z,101525.73
2022-09-05T18:01:05.493Z,101527.83
2022-09-05T18:04:08.455Z,101531.08
2022-09-05T18:07:00.196Z,101527.63
2022-09-05T18:13:13.520Z,101529.45
2022-09-05T18:16:12.623Z,101534.10
2022-09-05T18:19:33.163Z,101540.58
2022-09-05T18:21:53.907Z,101541.23
2022-09-05T18:24:36.309Z,101538.41
2022-09-05T18:28:03.590Z,101541.04
2022-09-05T18:30:45.323Z,101545.95
2022-09-05T18:33:55.904Z,101547.06
2022-09-05T18:36:36.158Z,101550.11
2022-09-05T18:39:44.146Z,101550.92
2022-09-05T18:42:26.631Z,101545.79
2022-09-05T18:45:16.070Z,101540.13
2022-09-05T18:47:58.948Z,101530.06
2022-09-05T18:50:39.948Z,101525.01
2022-09-05T18:53:25.262Z,101529.38
2022-09-05T18:56:10.010Z,101530.14
2022-09-05T18:58:55.534Z,101530.48
2022-09-05T19:01:39.459Z,101531.48
2022-09-05T19:04:40.591Z,101528.27
2022-09-05T19:07:22.497Z,101526.17
2022-09-05T19:10:33.935Z,101517.88
2022-09-05T19:13:09.338Z,101513.55
2022-09-05T19:15:53.007Z,101512.92
2022-09-05T19:18:38.583Z,101511.02
2022-09-05T19:21:16.810Z,101510.61
2022-09-05T19:23:53.752Z,101507.45
2022-09-05T19:26:30.864Z,101507.61
2022-09-05T19:36:33.269Z,101509.33
2022-09-05T19:36:56.453Z,101514.92
2022-09-05T19:36:58.522Z,101513.03
2022-09-05T19:37:59.965Z,101513.86
2022-09-05T19:47:25.818Z,101516.65
2022-09-05T19:47:36.961Z,101519.11
2022-09-05T19:47:37.598Z,101520.65
2022-09-05T19:49:18.218Z,101523.78
2022-09-05T19:51:50.867Z,101524.17
2022-09-05T19:54:32.211Z,101520.08
2022-09-05T19:57:06.510Z,101520.18
2022-09-05T19:59:41.661Z,101516.10
2022-09-05T20:02:19.915Z,101520.08
2022-09-05T20:04:55.903Z,101520.98
2022-09-05T20:07:30.100Z,101519.84
2022-09-05T20:10:05.372Z,101520.91
2022-09-05T20:12:39.975Z,101518.81
2022-09-05T20:15:28.003Z,101515.44
2022-09-05T20:18:20.817Z,101515.77
2022-09-05T20:21:00.910Z,101517.60
2022-09-05T20:23:33.944Z,101514.41
2022-09-05T20:26:06.263Z,101511.66
2022-09-05T20:28:40.404Z,101514.09
2022-09-05T20:31:20.311Z,101511.05
2022-09-05T20:33:56.691Z,101509.20
2022-09-05T20:43:11.458Z,101504.48
2022-09-05T20:43:16.383Z,101511.02
2022-09-05T20:43:28.519Z,101507.38
2022-09-05T20:45:45.531Z,101515.95
2022-09-05T20:54:07.047Z,101515.91
2022-09-05T20:54:25.002Z,101511.76
2022-09-05T20:54:31.937Z,101504.02
2022-09-05T20:57:15.892Z,101498.64
2022-09-05T20:59:48.834Z,101498.68
2022-09-05T21:02:26.792Z,101495.03
2022-09-05T21:05:20.235Z,101497.30
2022-09-05T21:08:06.871Z,101498.73
2022-09-05T21:10:55.125Z,101493.94
2022-09-05T21:13:30.874Z,101493.14
2022-09-05T21:16:04.464Z,101493.71
2022-09-05T21:18:42.687Z,101493.52
2022-09-05T21:21:28.535Z,101494.60
2022-09-05T21:24:17.864Z,101489.75
2022-09-05T21:26:52.303Z,101484.80
2022-09-05T21:29:32.749Z,101482.08
2022-09-05T21:32:10.812Z,101481.96
2022-09-05T21:34:51.607Z,101489.06
2022-09-05T21:37:25.767Z,101492.01
2022-09-05T21:40:00.928Z,101496.32
2022-09-05T21:47:38.255Z,101496.77
2022-09-05T21:47:45.067Z,101505.34
2022-09-05T21:48:20.510Z,101503.10
2022-09-05T21:50:54.585Z,101501.92
2022-09-05T21:55:51.790Z,101501.39
2022-09-05T21:59:17.321Z,101495.67
2022-09-05T21:59:37.027Z,101497.30
2022-09-05T22:02:17.002Z,101495.59
2022-09-05T22:04:49.864Z,101493.89
2022-09-05T22:07:32.276Z,101488.09
2022-09-05T22:10:08.636Z,101484.03
2022-09-05T22:12:40.929Z,101480.95
2022-09-05T22:15:28.215Z,101478.04
2022-09-05T22:18:16.280Z,101480.16
2022-09-05T22:21:32.197Z,101484.27
2022-09-05T22:23:47.931Z,101479.92
2022-09-05T22:26:21.703Z,101482.77
2022-09-05T22:28:54.010Z,101482.16
2022-09-05T22:31:27.655Z,101478.94
2022-09-05T22:34:00.405Z,101476.49
2022-09-05T22:36:35.434Z,101478.80
2022-09-05T22:39:08.295Z,101478.25
2022-09-05T22:41:41.740Z,101477.05
2022-09-05T22:44:13.938Z,101478.28
2022-09-05T22:46:46.142Z,101476.67
2022-09-05T22:49:18.321Z,101479.23
2022-09-05T22:51:50.492Z,101479.73
2022-09-05T22:54:23.574Z,101481.36
2022-09-05T22:56:55.745Z,101478.81
2022-09-05T22:59:27.920Z,101482.63
2022-09-05T23:02:00.206Z,101483.48
2022-09-05T23:04:32.538Z,101483.30
2022-09-05T23:07:05.764Z,101476.42
2022-09-05T23:09:37.940Z,101483.63
2022-09-05T23:12:10.420Z,101480.88
2022-09-05T23:14:42.566Z,101478.52
2022-09-05T23:17:15.674Z,101480.55
2022-09-05T23:19:47.886Z,101480.49
2022-09-05T23:22:20.059Z,101479.71
2022-09-05T23:24:52.255Z,101480.63
2022-09-05T23:27:24.602Z,101479.02
2022-09-05T23:29:56.758Z,101480.00
2022-09-05T23:32:28.945Z,101479.98
2022-09-05T23:35:01.844Z,101477.05
2022-09-05T23:37:34.014Z,101477.79
2022-09-05T23:40:07.533Z,101476.98
2022-09-05T23:42:39.972Z,101474.77
2022-09-05T23:45:13.468Z,101469.92
2022-09-05T23:47:45.712Z,101473.67
2022-09-05T23:50:18.793Z,101472.24
2022-09-05T23:52:51.995Z,101469.70
2022-09-05T23:55:24.800Z,101472.04
2022-09-05T23:58:01.330Z,101475.36
